Airfield :
LOGIN :

Register | Disclaimer

   EN    FR    IT 

 










Legend :    VFR   Marginal VFR   IFR   Intensive IFR   Very Intensive IFR
Visi :
Ceiling :
>= 8 km
>= 3000ft
5 to 8 km
1000 to 3000 ft
1500m to 5 km
500 to 1000 ft
800 to 1500m
200 to 500 ft
< 800m
< 200 ft
Symbols :   Thunderstorms  Fog  Heavy snow  Heavy precipitations  Wind > 20 kt
SIGMETs :     Misc.  Thunderstorms  Icing  Turbulence  Mountain Waves  Volcanic Ashes






- Airport Elevation : 231 ft
- IATA code : WTN


EGXW - RAF Waddington

CURRENT METAR :
  • 121020Z 24019G29KT 9999 FEW014 BKN020 05/02 Q0991 TEMPO SCT014 RMK WHT TEMPO GRN

EXPIRED METARs :
  • 120950Z 24018G28KT 9999 BKN017 BKN025 05/02 Q0991 TEMPO SCT014 RMK WHT TEMPO GRN
  • 120923Z 23017KT 9999 -RA BKN019 BKN029 05/02 Q0991 TEMPO SCT014 RMK WHT TEMPO GRN
  • 120850Z 23016KT 9999 -RA SCT020 BKN060 05/02 Q0991 TEMPO SCT014 RMK WHT TEMPO GRN
  • 120820Z 23015KT 9999 FEW030 BKN070 BKN180 05/01 Q0992 TEMPO SCT024 RMK BLU TEMPO WHT
  • 120750Z 23016KT 9999 FEW026 BKN180 04/01 Q0992 TEMPO SCT024 RMK BLU TEMPO WHT

TAF TAF EGXW
Valid from the 12 at 09:00 until the 13 at 03:00 UTC


120731Z 1209/1303 24015G25KT 9999 SCT030
TEMPO 1209/1218 -SHRA BKN018
PROB30
TEMPO 1209/1218 7000 SHRA
PROB30
TEMPO 1209/1213 SCT010
BECMG 1211/1213 29012KT



MET'MAP, your aeronautical weather chart ! - Copyright ORBIFLY December 2007 - Disclaimer

ORBIFLY MET'MAP TEAM :

Programming & Development : Alexandra Zaïnal
Concept & Development : Baudouin d'Aumeries
Co-Development & Prog : Marc-Olivier Méhu
Technical & hardware support : Manuel Goepfert

Contact : metmap@orbifly.com




SOURCES & CREDITS :

   NOAA